YFDN weather

Federation Hsd Airport
New South Wales, Australia

Public forecast

Using degrees Celsius for public forecast. Weather courtesy of forecast.io.

METAR (pilot weather report)

Closest report is Wagga Wagga City Airport, 10.3 nm (19.0 km) SSE. Retrieved 2019/03/26 18:00 UTC (2 hours ago):

YSWG 261800Z AUTO 13008KT 9999 // NCD 09/06 Q1022

TAF (pilot weather forecast)

Forecast is more than 12 hours old.

Closest forecast is Wagga Wagga City Airport, 10.3 nm (19.0 km) SSE. Retrieved 2018/05/25 18:03 UTC (10 months ago):

TAF YSWG 251649Z 2518/2608 07008KT CAVOK